createdAt,value
2022-11-05T00:01:27.861Z,9.24
2022-11-05T00:04:48.733Z,9.13
2022-11-05T00:08:11.045Z,9.08
2022-11-05T00:11:17.949Z,9.02
2022-11-05T00:14:55.266Z,8.88
2022-11-05T00:17:57.444Z,8.83
2022-11-05T00:20:59.363Z,8.72
2022-11-05T00:24:24.154Z,8.61
2022-11-05T00:27:26.303Z,8.58
2022-11-05T00:30:29.002Z,8.47
2022-11-05T00:33:31.312Z,8.37
2022-11-05T00:36:33.470Z,8.27
2022-11-05T00:39:35.370Z,8.21
2022-11-05T00:42:57.767Z,8.14
2022-11-05T00:45:59.698Z,8.07
2022-11-05T00:49:20.415Z,8.00
2022-11-05T00:52:40.828Z,7.99
2022-11-05T00:55:44.707Z,7.91
2022-11-05T00:58:46.591Z,7.96
2022-11-05T01:01:48.998Z,7.90
2022-11-05T01:04:50.980Z,7.85
2022-11-05T01:07:53.206Z,7.87
2022-11-05T01:10:56.197Z,7.86
2022-11-05T01:14:03.989Z,7.89
2022-11-05T01:17:05.865Z,7.83
2022-11-05T01:20:08.330Z,7.83
2022-11-05T01:23:13.452Z,7.79
2022-11-05T01:26:16.027Z,7.81
2022-11-05T01:29:17.968Z,7.74
2022-11-05T01:32:20.140Z,7.79
2022-11-05T01:35:22.037Z,7.72
2022-11-05T01:38:24.229Z,7.70
2022-11-05T01:41:26.157Z,7.66
2022-11-05T01:44:47.951Z,7.64
2022-11-05T01:47:59.182Z,7.62
2022-11-05T01:51:04.540Z,7.60
2022-11-05T01:54:09.313Z,7.63
2022-11-05T01:57:11.751Z,7.53
2022-11-05T02:00:13.963Z,7.53
2022-11-05T02:03:16.515Z,7.59
2022-11-05T02:06:19.506Z,7.59
2022-11-05T02:09:43.967Z,7.55
2022-11-05T02:12:47.330Z,7.52
2022-11-05T02:15:56.377Z,7.52
2022-11-05T02:19:10.488Z,7.52
2022-11-05T02:22:18.500Z,7.53
2022-11-05T02:25:52.604Z,7.45
2022-11-05T02:29:13.725Z,7.41
2022-11-05T02:32:18.884Z,7.41
2022-11-05T02:35:39.539Z,7.40
2022-11-05T02:38:41.734Z,7.34
2022-11-05T02:41:49.895Z,7.32
2022-11-05T02:45:10.948Z,7.33
2022-11-05T02:48:12.879Z,7.30
2022-11-05T02:51:23.009Z,7.27
2022-11-05T02:54:36.896Z,7.25
2022-11-05T02:57:43.685Z,7.21
2022-11-05T03:00:50.518Z,7.21
2022-11-05T03:03:52.656Z,7.19
2022-11-05T03:07:00.576Z,7.17
2022-11-05T03:10:09.366Z,7.18
2022-11-05T03:13:17.603Z,7.19
2022-11-05T03:16:29.685Z,7.17
2022-11-05T03:19:34.739Z,7.11
2022-11-05T03:22:40.411Z,7.10
2022-11-05T03:26:05.334Z,7.10
2022-11-05T03:29:13.525Z,7.09
2022-11-05T03:32:15.896Z,7.06
2022-11-05T03:35:24.198Z,7.07
2022-11-05T03:38:29.657Z,7.05
2022-11-05T03:41:32.932Z,7.11
2022-11-05T03:44:37.184Z,7.09
2022-11-05T03:47:40.890Z,7.10
2022-11-05T03:50:48.986Z,7.08
2022-11-05T03:53:55.073Z,7.09
2022-11-05T03:57:12.195Z,7.02
2022-11-05T04:00:14.459Z,7.04
2022-11-05T04:03:16.606Z,7.01
2022-11-05T04:06:37.061Z,6.98
2022-11-05T04:09:57.929Z,6.96
2022-11-05T04:13:19.042Z,6.92
2022-11-05T04:16:39.638Z,6.97
2022-11-05T04:20:01.275Z,6.93
2022-11-05T04:23:23.950Z,6.93
2022-11-05T04:26:25.827Z,6.90
2022-11-05T04:29:46.509Z,6.91
2022-11-05T04:32:58.587Z,6.91
2022-11-05T04:36:00.768Z,6.84
2022-11-05T04:39:02.676Z,6.89
2022-11-05T04:42:05.003Z,6.88
2022-11-05T04:45:07.005Z,6.92
2022-11-05T04:48:09.382Z,6.91
2022-11-05T04:51:11.285Z,6.88
2022-11-05T04:54:13.431Z,6.95
2022-11-05T04:57:15.298Z,6.90
2022-11-05T05:00:18.512Z,6.95
2022-11-05T05:03:20.536Z,6.96
2022-11-05T05:06:22.963Z,6.98
2022-11-05T05:09:24.822Z,6.96
2022-11-05T05:12:27.324Z,6.98
2022-11-05T05:15:29.210Z,6.96
2022-11-05T05:18:31.417Z,6.96
2022-11-05T05:21:39.435Z,6.94
2022-11-05T05:24:41.699Z,6.91
2022-11-05T05:27:43.654Z,6.94
2022-11-05T05:30:45.797Z,6.95
2022-11-05T05:33:47.707Z,6.91
2022-11-05T05:36:49.869Z,6.90
2022-11-05T05:39:53.535Z,6.89
2022-11-05T05:42:55.798Z,6.90
2022-11-05T05:46:01.243Z,6.89
2022-11-05T05:49:06.709Z,6.88
2022-11-05T05:52:13.028Z,6.89
2022-11-05T05:55:15.326Z,6.94
2022-11-05T05:58:17.220Z,6.95
2022-11-05T06:01:20.265Z,6.95
2022-11-05T06:04:22.633Z,7.01
2022-11-05T06:07:24.544Z,6.98
2022-11-05T06:10:26.929Z,7.05
2022-11-05T06:13:29.129Z,7.09
2022-11-05T06:16:35.813Z,7.18
2022-11-05T06:19:37.687Z,7.17
2022-11-05T06:22:39.977Z,7.15
2022-11-05T06:25:41.900Z,7.29
2022-11-05T06:28:44.481Z,7.29
2022-11-05T06:31:46.807Z,7.36
2022-11-05T06:34:49.020Z,7.40
2022-11-05T06:37:51.044Z,7.38
2022-11-05T06:40:53.226Z,7.29
2022-11-05T06:43:55.124Z,7.26
2022-11-05T06:46:57.293Z,7.32
2022-11-05T06:49:59.174Z,7.34
2022-11-05T06:53:03.275Z,7.34
2022-11-05T06:56:05.605Z,7.36
2022-11-05T06:59:08.547Z,7.37
2022-11-05T07:02:11.552Z,7.44
2022-11-05T07:05:14.375Z,7.49
2022-11-05T07:08:16.773Z,7.53
2022-11-05T07:11:18.932Z,7.66
2022-11-05T07:14:20.865Z,7.68
2022-11-05T07:17:23.052Z,7.74
2022-11-05T07:20:29.376Z,7.84
2022-11-05T07:23:34.566Z,7.82
2022-11-05T07:26:36.448Z,7.84
2022-11-05T07:29:38.640Z,7.88
2022-11-05T07:32:40.956Z,7.93
2022-11-05T07:35:43.226Z,7.96
2022-11-05T07:38:45.114Z,7.97
2022-11-05T07:41:47.294Z,7.98
2022-11-05T07:44:49.155Z,8.07
2022-11-05T07:47:52.485Z,8.13
2022-11-05T07:50:54.620Z,8.26
2022-11-05T07:53:56.781Z,8.25
2022-11-05T07:56:58.715Z,8.27
2022-11-05T08:00:00.892Z,8.24
2022-11-05T08:03:08.088Z,8.29
2022-11-05T08:06:10.998Z,8.30
2022-11-05T08:09:12.879Z,8.31
2022-11-05T08:12:15.134Z,8.37
2022-11-05T08:15:17.060Z,8.44
2022-11-05T08:18:19.271Z,8.53
2022-11-05T08:21:21.206Z,8.55
2022-11-05T08:24:23.469Z,8.56
2022-11-05T08:27:25.439Z,8.65
2022-11-05T08:30:28.262Z,8.70
2022-11-05T08:33:31.444Z,8.80
2022-11-05T08:36:34.524Z,9.03
2022-11-05T08:39:36.444Z,9.31
2022-11-05T08:42:38.668Z,9.32
2022-11-05T08:45:41.075Z,9.37
2022-11-05T08:48:43.250Z,9.41
2022-11-05T08:51:45.417Z,9.61
2022-11-05T08:54:47.736Z,9.76
2022-11-05T08:57:54.760Z,9.58
2022-11-05T09:01:03.457Z,9.67
2022-11-05T09:04:06.830Z,9.72
2022-11-05T09:07:09.047Z,9.56
2022-11-05T09:10:11.082Z,9.40
2022-11-05T09:13:18.298Z,9.44
2022-11-05T09:16:23.059Z,9.52
2022-11-05T09:19:25.364Z,9.71
2022-11-05T09:22:27.271Z,9.82
2022-11-05T09:25:29.533Z,9.87
2022-11-05T09:28:32.380Z,9.86
2022-11-05T09:31:34.553Z,9.85
2022-11-05T09:34:36.711Z,9.99
2022-11-05T09:37:38.915Z,10.00
2022-11-05T09:40:44.094Z,10.13
2022-11-05T09:43:51.485Z,10.05
2022-11-05T09:46:56.462Z,10.14
2022-11-05T09:50:01.297Z,10.17
2022-11-05T09:53:03.913Z,10.35
2022-11-05T09:56:14.000Z,10.14
2022-11-05T09:59:18.844Z,10.27
2022-11-05T10:02:23.659Z,10.43
2022-11-05T10:05:27.704Z,10.72
2022-11-05T10:08:32.607Z,10.92
2022-11-05T10:11:34.851Z,10.97
2022-11-05T10:14:39.008Z,11.12
2022-11-05T10:17:44.608Z,10.89
2022-11-05T10:20:46.558Z,10.92
2022-11-05T10:23:48.743Z,10.83
2022-11-05T10:26:52.298Z,10.81
2022-11-05T10:29:54.824Z,10.93
2022-11-05T10:32:59.237Z,11.17
2022-11-05T10:36:06.237Z,11.22
2022-11-05T10:39:15.941Z,11.40
2022-11-05T10:42:21.110Z,11.33
2022-11-05T10:45:23.060Z,11.00
2022-11-05T10:48:37.015Z,11.15
2022-11-05T10:51:43.528Z,11.33
2022-11-05T10:54:45.957Z,11.60
2022-11-05T10:57:49.408Z,11.54
2022-11-05T11:00:51.628Z,11.73
2022-11-05T11:04:05.157Z,12.19
2022-11-05T11:07:17.159Z,12.29
2022-11-05T11:10:21.728Z,12.70
2022-11-05T11:13:25.409Z,12.75
2022-11-05T11:16:29.000Z,12.49
2022-11-05T11:19:32.746Z,11.87
2022-11-05T11:22:34.669Z,12.04
2022-11-05T11:25:50.369Z,12.12
2022-11-05T11:29:00.992Z,12.34
2022-11-05T11:32:03.335Z,12.47
2022-11-05T11:35:06.594Z,12.51
2022-11-05T11:38:14.094Z,12.15
2022-11-05T11:41:24.005Z,12.58
2022-11-05T11:44:29.569Z,12.72
2022-11-05T11:47:32.265Z,12.48
2022-11-05T11:50:43.445Z,12.26
2022-11-05T11:53:47.531Z,12.22
2022-11-05T11:56:49.793Z,11.93
2022-11-05T12:00:08.380Z,11.98
2022-11-05T12:03:26.118Z,12.02
2022-11-05T12:06:36.104Z,12.18
2022-11-05T12:09:41.074Z,12.48
2022-11-05T12:12:49.993Z,12.43
2022-11-05T12:15:53.948Z,12.14
2022-11-05T12:19:11.363Z,12.37
2022-11-05T12:22:22.426Z,12.12
2022-11-05T12:25:40.036Z,12.27
2022-11-05T12:29:16.855Z,12.30
2022-11-05T12:32:30.316Z,12.23
2022-11-05T12:35:47.031Z,12.00
2022-11-05T12:38:59.597Z,12.02
2022-11-05T12:42:04.704Z,12.08
2022-11-05T12:45:15.878Z,12.03
2022-11-05T12:48:36.749Z,11.88
2022-11-05T12:51:54.708Z,11.83
2022-11-05T12:55:11.564Z,11.71
2022-11-05T12:58:27.836Z,11.72
2022-11-05T13:01:35.464Z,11.70
2022-11-05T13:04:49.721Z,11.59
2022-11-05T13:08:01.984Z,11.63
2022-11-05T13:11:24.406Z,11.67
2022-11-05T13:14:33.432Z,11.68
2022-11-05T13:17:43.885Z,11.73
2022-11-05T13:20:49.089Z,11.71
2022-11-05T13:24:30.069Z,11.65
2022-11-05T13:27:48.701Z,11.61
2022-11-05T13:30:52.721Z,11.56
2022-11-05T13:33:55.272Z,11.56
2022-11-05T13:37:18.844Z,11.54
2022-11-05T13:40:24.821Z,11.59
2022-11-05T13:43:47.233Z,11.61
2022-11-05T13:47:12.614Z,11.58
2022-11-05T13:50:33.772Z,11.51
2022-11-05T13:53:53.974Z,11.43
2022-11-05T13:57:03.695Z,11.43
2022-11-05T14:00:20.065Z,11.41
2022-11-05T14:03:22.491Z,11.40
2022-11-05T14:06:42.808Z,11.40
2022-11-05T14:09:45.663Z,11.40
2022-11-05T14:12:49.646Z,11.25
2022-11-05T14:16:01.537Z,11.29
2022-11-05T14:19:12.506Z,11.27
2022-11-05T14:22:33.210Z,11.27
2022-11-05T14:25:35.088Z,11.20
2022-11-05T14:28:37.658Z,11.19
2022-11-05T14:32:07.155Z,11.18
2022-11-05T14:35:04.406Z,11.18
2022-11-05T14:38:17.515Z,11.18
2022-11-05T14:41:20.708Z,11.16
2022-11-05T14:44:23.390Z,11.11
2022-11-05T14:47:27.664Z,11.14
2022-11-05T14:50:37.548Z,11.11
2022-11-05T14:53:40.569Z,11.02
2022-11-05T14:56:53.300Z,11.04
2022-11-05T15:00:00.835Z,11.00
2022-11-05T15:03:05.295Z,10.93
2022-11-05T15:06:22.868Z,10.98
2022-11-05T15:09:43.595Z,10.95
2022-11-05T15:12:48.865Z,10.90
2022-11-05T15:15:51.816Z,10.90
2022-11-05T15:18:55.954Z,10.89
2022-11-05T15:21:59.385Z,10.84
2022-11-05T15:25:03.072Z,10.78
2022-11-05T15:28:05.453Z,10.71
2022-11-05T15:31:10.571Z,10.70
2022-11-05T15:34:23.708Z,10.67
2022-11-05T15:37:26.796Z,10.63
2022-11-05T15:40:30.292Z,10.61
2022-11-05T15:43:32.731Z,10.53
2022-11-05T15:46:34.637Z,10.46
2022-11-05T15:49:36.841Z,10.53
2022-11-05T15:52:42.912Z,10.49
2022-11-05T15:55:52.213Z,10.47
2022-11-05T15:58:59.778Z,10.49
2022-11-05T16:02:19.053Z,10.57
2022-11-05T16:05:22.017Z,10.51
2022-11-05T16:08:26.539Z,10.51
2022-11-05T16:11:28.704Z,10.67
2022-11-05T16:14:34.747Z,10.61
2022-11-05T16:17:40.024Z,10.52
2022-11-05T16:20:58.969Z,10.44
2022-11-05T16:24:01.131Z,10.42
2022-11-05T16:27:04.006Z,10.34
2022-11-05T16:30:06.467Z,10.30
2022-11-05T16:33:08.459Z,10.30
2022-11-05T16:36:10.970Z,10.26
2022-11-05T16:39:12.820Z,10.12
2022-11-05T16:42:27.258Z,10.16
2022-11-05T16:45:29.183Z,10.10
2022-11-05T16:48:31.370Z,10.02
2022-11-05T16:51:33.238Z,9.91
2022-11-05T16:54:35.788Z,9.85
2022-11-05T16:57:37.670Z,9.86
2022-11-05T17:00:39.964Z,9.74
2022-11-05T17:03:41.933Z,9.71
2022-11-05T17:06:46.548Z,9.58
2022-11-05T17:09:48.487Z,9.50
2022-11-05T17:12:51.153Z,9.43
2022-11-05T17:15:53.109Z,9.39
2022-11-05T17:18:55.279Z,9.32
2022-11-05T17:21:57.251Z,9.28
2022-11-05T17:24:59.403Z,9.27
2022-11-05T17:28:01.660Z,9.14
2022-11-05T17:31:05.122Z,9.08
2022-11-05T17:34:07.324Z,9.06
2022-11-05T17:37:09.468Z,9.03
2022-11-05T17:40:16.254Z,9.02
2022-11-05T17:43:20.015Z,8.95
2022-11-05T17:46:22.155Z,8.94
2022-11-05T17:49:24.293Z,8.93
2022-11-05T17:52:27.714Z,8.97
2022-11-05T17:55:29.903Z,8.94
2022-11-05T17:58:33.347Z,8.93
2022-11-05T18:01:37.262Z,9.06
2022-11-05T18:04:39.750Z,9.04
2022-11-05T18:07:41.643Z,9.07
2022-11-05T18:10:43.821Z,9.15
2022-11-05T18:13:46.229Z,9.17
2022-11-05T18:16:48.586Z,9.22
2022-11-05T18:19:50.465Z,9.13
2022-11-05T18:22:52.635Z,9.13
2022-11-05T18:25:54.569Z,9.22
2022-11-05T18:28:56.758Z,9.22
2022-11-05T18:31:58.667Z,9.25
2022-11-05T18:35:00.820Z,9.23
2022-11-05T18:38:02.721Z,9.14
2022-11-05T18:41:05.560Z,9.21
2022-11-05T18:44:07.510Z,9.16
2022-11-05T18:47:09.759Z,9.08
2022-11-05T18:50:11.695Z,9.12
2022-11-05T18:53:13.869Z,9.12
2022-11-05T18:56:16.549Z,9.12
2022-11-05T19:02:41.167Z,9.14
2022-11-05T19:05:43.438Z,9.16
2022-11-05T19:08:45.400Z,9.10
2022-11-05T19:11:47.648Z,9.12
2022-11-05T19:14:49.569Z,9.06
2022-11-05T19:17:51.730Z,9.07
2022-11-05T19:20:53.792Z,9.05
2022-11-05T19:23:57.055Z,9.12
2022-11-05T19:26:58.925Z,9.05
2022-11-05T19:30:01.154Z,8.95
2022-11-05T19:33:03.046Z,9.03
2022-11-05T19:36:06.439Z,9.04
2022-11-05T19:39:09.413Z,9.12
2022-11-05T19:42:11.603Z,9.10
2022-11-05T19:48:36.112Z,9.16
2022-11-05T19:51:38.027Z,9.11
2022-11-05T19:54:40.289Z,9.09
2022-11-05T19:57:42.148Z,9.07
2022-11-05T20:00:44.370Z,9.06
2022-11-05T20:03:46.683Z,9.14
2022-11-05T20:06:48.648Z,9.13
2022-11-05T20:09:50.795Z,9.17
2022-11-05T20:12:52.712Z,9.16
2022-11-05T20:15:55.303Z,9.17
2022-11-05T20:18:57.256Z,9.23
2022-11-05T20:22:00.579Z,9.14
2022-11-05T20:25:02.482Z,9.20
2022-11-05T20:28:05.030Z,9.15
2022-11-05T20:31:11.324Z,9.11
2022-11-05T20:34:13.540Z,9.13
2022-11-05T20:37:15.408Z,9.06
2022-11-05T20:40:17.633Z,9.23
2022-11-05T20:43:19.610Z,9.17
2022-11-05T20:46:22.486Z,9.26
2022-11-05T20:49:25.841Z,9.25
2022-11-05T20:52:28.308Z,9.13
2022-11-05T20:55:30.185Z,9.17
2022-11-05T20:58:32.551Z,9.12
2022-11-05T21:01:34.888Z,9.29
2022-11-05T21:04:37.352Z,9.26
2022-11-05T21:07:39.287Z,9.13
2022-11-05T21:10:43.108Z,9.11
2022-11-05T21:13:46.808Z,9.14
2022-11-05T21:16:49.005Z,9.16
2022-11-05T21:19:50.904Z,9.12
2022-11-05T21:22:53.084Z,9.19
2022-11-05T21:25:55.016Z,9.12
2022-11-05T21:28:57.197Z,9.10
2022-11-05T21:31:59.092Z,9.12
2022-11-05T21:35:01.327Z,9.13
2022-11-05T21:38:03.227Z,9.05
2022-11-05T21:41:05.729Z,9.06
2022-11-05T21:44:07.715Z,9.13
2022-11-05T21:47:09.972Z,9.10
2022-11-05T21:50:11.913Z,9.10
2022-11-05T21:53:33.524Z,9.07
2022-11-05T21:56:54.354Z,9.04
2022-11-05T21:59:57.517Z,9.13
2022-11-05T22:03:00.086Z,9.24
2022-11-05T22:06:02.320Z,9.20
2022-11-05T22:09:04.224Z,9.21
2022-11-05T22:12:06.922Z,9.17
2022-11-05T22:15:09.207Z,9.19
2022-11-05T22:18:11.667Z,9.04
2022-11-05T22:21:15.351Z,9.10
2022-11-05T22:24:18.175Z,9.27
2022-11-05T22:27:23.433Z,9.19
2022-11-05T22:30:27.091Z,9.09
2022-11-05T22:33:28.987Z,9.14
2022-11-05T22:36:31.773Z,9.16
2022-11-05T22:39:33.691Z,9.14
2022-11-05T22:42:35.945Z,9.26
2022-11-05T22:45:37.888Z,9.25
2022-11-05T22:48:40.859Z,9.25
2022-11-05T22:51:43.137Z,9.20
2022-11-05T22:54:47.629Z,9.20
2022-11-05T22:57:49.522Z,9.06
2022-11-05T23:00:51.723Z,9.06
2022-11-05T23:03:54.281Z,9.07
2022-11-05T23:07:15.375Z,9.06
2022-11-05T23:10:36.245Z,9.14
2022-11-05T23:13:38.436Z,9.17
2022-11-05T23:16:59.609Z,9.14
2022-11-05T23:20:20.488Z,9.11
2022-11-05T23:23:41.382Z,9.10
2022-11-05T23:26:52.862Z,9.16
2022-11-05T23:29:59.040Z,9.14
2022-11-05T23:33:01.227Z,9.04
2022-11-05T23:36:21.997Z,9.09
2022-11-05T23:39:24.209Z,9.00
2022-11-05T23:42:44.947Z,9.03
2022-11-05T23:45:58.920Z,9.09
2022-11-05T23:49:00.812Z,9.01
2022-11-05T23:52:03.092Z,9.03
2022-11-05T23:55:05.181Z,8.96
2022-11-05T23:58:08.019Z,8.97
